Portada
METAR-TAF:

METAR-TAF

Aeropuertos :

Asunción, Paraguay

Aeropuerto Internacional Silvio Pettirossi

latitud: 25-16S, longitud: 057-38W, altitud: 101 m

Observación

El informe se hizo hace 1 hora y 1 minutos, a las 14:00 UTC
Viento 15 kt del norte-noreste
Temperatura 26°C
Humedad 37%
Presión 1019 hPa
Visibilidad 10 km o más
sin nubes por debajo de 1500 m y sin presencia de cumulonimbus.

METAR: SGAS 281400Z 03015KT CAVOK 26/10 Q1019

Hora: 11:01 (15:01 UTC)

Pronóstico

El informe se hizo hace 4 horas y 41 minutos, a las 10:20 UTC
Pronóstico válido del 28 a las 12 UTC al 29 a las 12 UTC
Viento 15 kt del noreste
Visibilidad 10 km o más
sin nubes por debajo de 1500 m y sin presencia de cumulonimbus.
Evolucionando progresivamente
del 29 a las 00 UTC al 29 a las 03 UTC
Viento 7 kt del este-noreste
Visibilidad: 8000 m

TAF: SGAS 281020Z 2812/2912 04015KT CAVOK TX32/2819Z TN20/2910Z BECMG 2900/2903 06007KT 8000 NSC

Observaciones y pronósticos meteorológicos de más de 4000 aeropuertos (mensajes METAR y TAF).

Los puntos amarillos y rojos representan las estaciones disponibles.

Ponga el ratón en el punto deseado para ver el nombre de la estación.

Haga clic para ver las observaciones y los pronósticos meteorológicos.

Para cambiar el mapa : haga clic en los botones verdes con una cruz de color negro para hacer un zoom, en el botón verde con un guión para alejar o en las flechas verdes para mapas adyacentes.


METAR-TAF: